ASA66 PAYA-PAJN
Flight info
| Callsign | ASA66 |
|---|---|
| Flight time | 0h 32m |
| Altitude | 27000 |
| Route | YAK HAPIT SSR |
| Aircraft | B737/M-SDE2E3FGHIRWXY/LB1 |
Departure
| Time | 2026-04-16 21:59 |
|---|---|
| Airport | Yakutat Airport (PAYA) |
Arrival
| Time | 2026-04-16 22:32 |
|---|---|
| Airport | Juneau International Airport (PAJN) |
| Time | Latitude | Longitude | Altitude | Speed | Heading |
|---|---|---|---|---|---|
| 2026-04-16 21:30 | 59.50798 | -139.66730 | 48 ft | 0 kts | 329° |
| 2026-04-16 21:53 | 59.50778 | -139.66709 | 48 ft | 4 kts | 333° |
| 2026-04-16 21:53 | 59.50760 | -139.66690 | 48 ft | 4 kts | 24° |
| 2026-04-16 21:54 | 59.50742 | -139.66717 | 45 ft | 4 kts | 45° |
| 2026-04-16 21:54 | 59.50737 | -139.66726 | 48 ft | 0 kts | 45° |
| 2026-04-16 21:57 | 59.50746 | -139.66711 | 46 ft | 4 kts | 43° |
| 2026-04-16 21:57 | 59.50785 | -139.66640 | 48 ft | 11 kts | 43° |
| 2026-04-16 21:57 | 59.50847 | -139.66520 | 45 ft | 13 kts | 46° |
| 2026-04-16 21:58 | 59.50913 | -139.66390 | 48 ft | 13 kts | 44° |
| 2026-04-16 21:58 | 59.50974 | -139.66268 | 47 ft | 12 kts | 46° |
| 2026-04-16 21:58 | 59.50978 | -139.66135 | 44 ft | 12 kts | 139° |
| 2026-04-16 21:58 | 59.50914 | -139.66021 | 45 ft | 13 kts | 153° |
| 2026-04-16 21:59 | 59.50839 | -139.66105 | 45 ft | 14 kts | 227° |
| 2026-04-16 21:59 | 59.50661 | -139.66455 | 47 ft | 84 kts | 225° |
| 2026-04-16 21:59 | 59.50025 | -139.67688 | 317 ft | 153 kts | 222° |
| 2026-04-16 21:59 | 59.49238 | -139.68935 | 1766 ft | 136 kts | 201° |
| 2026-04-16 22:00 | 59.48322 | -139.69141 | 2907 ft | 142 kts | 171° |
| 2026-04-16 22:00 | 59.47367 | -139.68168 | 3699 ft | 170 kts | 130° |
| 2026-04-16 22:00 | 59.46997 | -139.65972 | 4954 ft | 178 kts | 89° |
| 2026-04-16 22:00 | 59.47439 | -139.63640 | 5996 ft | 197 kts | 55° |
| 2026-04-16 22:01 | 59.48336 | -139.61390 | 6788 ft | 217 kts | 50° |
| 2026-04-16 22:01 | 59.49208 | -139.58880 | 7649 ft | 233 kts | 70° |
| 2026-04-16 22:01 | 59.49279 | -139.55509 | 8082 ft | 271 kts | 108° |
| 2026-04-16 22:01 | 59.48389 | -139.52084 | 8935 ft | 289 kts | 124° |
| 2026-04-16 22:02 | 59.47293 | -139.48690 | 10148 ft | 298 kts | 126° |
| 2026-04-16 22:02 | 59.46145 | -139.45120 | 10858 ft | 325 kts | 125° |
| 2026-04-16 22:02 | 59.44898 | -139.41136 | 11317 ft | 355 kts | 124° |
| 2026-04-16 22:02 | 59.43616 | -139.36888 | 12254 ft | 367 kts | 123° |
| 2026-04-16 22:03 | 59.42323 | -139.32484 | 13303 ft | 377 kts | 123° |
| 2026-04-16 22:03 | 59.41013 | -139.27940 | 14310 ft | 388 kts | 123° |
| 2026-04-16 22:03 | 59.39679 | -139.23264 | 15352 ft | 396 kts | 122° |
| 2026-04-16 22:03 | 59.38332 | -139.18515 | 16470 ft | 401 kts | 122° |
| 2026-04-16 22:04 | 59.36965 | -139.13691 | 17610 ft | 408 kts | 122° |
| 2026-04-16 22:04 | 59.35574 | -139.08780 | 18689 ft | 416 kts | 122° |
| 2026-04-16 22:04 | 59.34155 | -139.03784 | 19630 ft | 423 kts | 122° |
| 2026-04-16 22:04 | 59.32709 | -138.98701 | 20567 ft | 431 kts | 122° |
| 2026-04-16 22:05 | 59.31238 | -138.93540 | 21500 ft | 438 kts | 122° |
| 2026-04-16 22:05 | 59.29740 | -138.88302 | 22405 ft | 445 kts | 122° |
| 2026-04-16 22:05 | 59.28213 | -138.82973 | 23299 ft | 453 kts | 122° |
| 2026-04-16 22:05 | 59.26657 | -138.77559 | 24102 ft | 460 kts | 122° |
| 2026-04-16 22:06 | 59.25077 | -138.72073 | 24849 ft | 466 kts | 122° |
| 2026-04-16 22:06 | 59.21865 | -138.60957 | 26482 ft | 471 kts | 122° |
| 2026-04-16 22:06 | 59.20250 | -138.55383 | 27013 ft | 473 kts | 123° |
| 2026-04-16 22:07 | 59.18628 | -138.49802 | 27197 ft | 471 kts | 123° |
| 2026-04-16 22:07 | 59.17014 | -138.44258 | 27199 ft | 469 kts | 123° |
| 2026-04-16 22:07 | 59.15406 | -138.38751 | 27190 ft | 467 kts | 123° |
| 2026-04-16 22:07 | 59.13794 | -138.33248 | 27197 ft | 468 kts | 123° |
| 2026-04-16 22:08 | 59.12178 | -138.27748 | 27196 ft | 469 kts | 123° |
| 2026-04-16 22:08 | 59.10557 | -138.22242 | 27196 ft | 469 kts | 123° |
| 2026-04-16 22:08 | 59.08932 | -138.16733 | 27182 ft | 469 kts | 123° |
| 2026-04-16 22:08 | 59.07307 | -138.11239 | 27193 ft | 469 kts | 123° |
| 2026-04-16 22:09 | 59.05682 | -138.05752 | 27189 ft | 469 kts | 124° |
| 2026-04-16 22:09 | 59.04048 | -138.00251 | 27182 ft | 471 kts | 123° |
| 2026-04-16 22:09 | 59.02411 | -137.94753 | 27194 ft | 471 kts | 123° |
| 2026-04-16 22:09 | 59.00789 | -137.89313 | 27195 ft | 472 kts | 123° |
| 2026-04-16 22:10 | 58.99143 | -137.83811 | 27199 ft | 472 kts | 123° |
| 2026-04-16 22:10 | 58.97521 | -137.78265 | 27182 ft | 473 kts | 121° |
| 2026-04-16 22:10 | 58.96020 | -137.72587 | 27193 ft | 473 kts | 119° |
| 2026-04-16 22:10 | 58.94589 | -137.66845 | 27184 ft | 473 kts | 118° |
| 2026-04-16 22:11 | 58.93183 | -137.61091 | 27178 ft | 473 kts | 118° |
| 2026-04-16 22:11 | 58.91774 | -137.55335 | 27199 ft | 473 kts | 118° |
| 2026-04-16 22:11 | 58.90359 | -137.49600 | 27173 ft | 472 kts | 118° |
| 2026-04-16 22:11 | 58.88932 | -137.43901 | 27189 ft | 470 kts | 118° |
| 2026-04-16 22:12 | 58.87495 | -137.38229 | 27123 ft | 470 kts | 119° |
| 2026-04-16 22:12 | 58.86053 | -137.32573 | 26625 ft | 466 kts | 119° |
| 2026-04-16 22:12 | 58.84631 | -137.27017 | 26126 ft | 457 kts | 118° |
| 2026-04-16 22:12 | 58.83234 | -137.21570 | 25594 ft | 448 kts | 118° |
| 2026-04-16 22:13 | 58.81859 | -137.16224 | 25089 ft | 441 kts | 118° |
| 2026-04-16 22:13 | 58.80502 | -137.10957 | 24582 ft | 435 kts | 118° |
| 2026-04-16 22:13 | 58.79161 | -137.05767 | 24061 ft | 430 kts | 118° |
| 2026-04-16 22:13 | 58.77830 | -137.00632 | 23496 ft | 425 kts | 118° |
| 2026-04-16 22:14 | 58.76516 | -136.95570 | 22931 ft | 419 kts | 117° |
| 2026-04-16 22:14 | 58.75222 | -136.90605 | 22418 ft | 411 kts | 117° |
| 2026-04-16 22:14 | 58.73948 | -136.85723 | 21928 ft | 406 kts | 117° |
| 2026-04-16 22:14 | 58.72681 | -136.80873 | 21429 ft | 406 kts | 117° |
| 2026-04-16 22:15 | 58.71406 | -136.75998 | 20925 ft | 409 kts | 117° |
| 2026-04-16 22:15 | 58.70115 | -136.71076 | 20408 ft | 414 kts | 117° |
| 2026-04-16 22:15 | 58.68819 | -136.66144 | 19864 ft | 411 kts | 117° |
| 2026-04-16 22:15 | 58.67540 | -136.61287 | 19379 ft | 403 kts | 117° |
| 2026-04-16 22:16 | 58.66284 | -136.56529 | 18870 ft | 396 kts | 117° |
| 2026-04-16 22:16 | 58.65048 | -136.51854 | 18369 ft | 390 kts | 117° |
| 2026-04-16 22:16 | 58.63826 | -136.47245 | 17788 ft | 384 kts | 118° |
| 2026-04-16 22:16 | 58.62626 | -136.42730 | 17285 ft | 376 kts | 117° |
| 2026-04-16 22:17 | 58.61438 | -136.38267 | 16640 ft | 375 kts | 117° |
| 2026-04-16 22:17 | 58.60259 | -136.33846 | 16131 ft | 370 kts | 118° |
| 2026-04-16 22:17 | 58.59090 | -136.29472 | 15624 ft | 366 kts | 118° |
| 2026-04-16 22:17 | 58.57936 | -136.25160 | 15123 ft | 361 kts | 118° |
| 2026-04-16 22:18 | 58.56794 | -136.20903 | 14643 ft | 359 kts | 118° |
| 2026-04-16 22:18 | 58.55647 | -136.16635 | 14192 ft | 363 kts | 118° |
| 2026-04-16 22:18 | 58.54479 | -136.12300 | 13661 ft | 369 kts | 118° |
| 2026-04-16 22:18 | 58.53320 | -136.08005 | 13114 ft | 365 kts | 118° |
| 2026-04-16 22:19 | 58.52166 | -136.03734 | 12588 ft | 358 kts | 119° |
| 2026-04-16 22:19 | 58.51033 | -135.99546 | 12101 ft | 350 kts | 119° |
| 2026-04-16 22:19 | 58.49922 | -135.95450 | 11612 ft | 344 kts | 119° |
| 2026-04-16 22:19 | 58.48831 | -135.91433 | 11159 ft | 337 kts | 120° |
| 2026-04-16 22:20 | 58.47759 | -135.87495 | 10677 ft | 331 kts | 119° |
| 2026-04-16 22:20 | 58.46707 | -135.83636 | 10313 ft | 322 kts | 120° |
| 2026-04-16 22:20 | 58.45698 | -135.79938 | 10183 ft | 306 kts | 120° |
| 2026-04-16 22:20 | 58.44736 | -135.76419 | 10046 ft | 292 kts | 119° |
| 2026-04-16 22:21 | 58.43812 | -135.73049 | 9798 ft | 284 kts | 119° |
| 2026-04-16 22:21 | 58.42905 | -135.69742 | 9474 ft | 279 kts | 119° |
| 2026-04-16 22:21 | 58.42011 | -135.66492 | 9128 ft | 275 kts | 120° |
| 2026-04-16 22:21 | 58.41128 | -135.63286 | 8802 ft | 271 kts | 120° |
| 2026-04-16 22:22 | 58.40258 | -135.60132 | 8469 ft | 267 kts | 120° |
| 2026-04-16 22:22 | 58.39399 | -135.57014 | 8146 ft | 264 kts | 120° |
| 2026-04-16 22:22 | 58.38549 | -135.53938 | 7821 ft | 263 kts | 120° |
| 2026-04-16 22:22 | 58.37685 | -135.50823 | 7520 ft | 270 kts | 120° |
| 2026-04-16 22:23 | 58.36802 | -135.47642 | 7173 ft | 271 kts | 120° |
| 2026-04-16 22:23 | 58.36202 | -135.44299 | 6931 ft | 266 kts | 97° |
| 2026-04-16 22:23 | 58.36163 | -135.40775 | 6831 ft | 267 kts | 91° |
| 2026-04-16 22:23 | 58.36174 | -135.37208 | 6697 ft | 272 kts | 91° |
| 2026-04-16 22:24 | 58.36186 | -135.33596 | 6556 ft | 273 kts | 91° |
| 2026-04-16 22:24 | 58.36189 | -135.30005 | 6393 ft | 269 kts | 92° |
| 2026-04-16 22:24 | 58.36185 | -135.26449 | 6265 ft | 267 kts | 92° |
| 2026-04-16 22:24 | 58.36177 | -135.22925 | 6131 ft | 265 kts | 92° |
| 2026-04-16 22:25 | 58.36168 | -135.19442 | 5937 ft | 260 kts | 92° |
| 2026-04-16 22:25 | 58.36159 | -135.16081 | 5738 ft | 247 kts | 92° |
| 2026-04-16 22:25 | 58.36150 | -135.12912 | 5509 ft | 232 kts | 92° |
| 2026-04-16 22:25 | 58.36141 | -135.09929 | 5291 ft | 218 kts | 92° |
| 2026-04-16 22:26 | 58.36130 | -135.07113 | 4997 ft | 210 kts | 92° |
| 2026-04-16 22:26 | 58.36118 | -135.04406 | 4734 ft | 200 kts | 92° |
| 2026-04-16 22:26 | 58.36109 | -135.01811 | 4422 ft | 193 kts | 93° |
| 2026-04-16 22:26 | 58.36098 | -134.99287 | 4113 ft | 187 kts | 93° |
| 2026-04-16 22:27 | 58.36087 | -134.96849 | 3831 ft | 181 kts | 93° |
| 2026-04-16 22:27 | 58.36075 | -134.94479 | 3566 ft | 176 kts | 93° |
| 2026-04-16 22:27 | 58.36064 | -134.92180 | 3295 ft | 171 kts | 93° |
| 2026-04-16 22:27 | 58.36053 | -134.89946 | 3039 ft | 165 kts | 93° |
| 2026-04-16 22:28 | 58.36042 | -134.87806 | 2871 ft | 158 kts | 93° |
| 2026-04-16 22:28 | 58.36034 | -134.86418 | 2786 ft | 158 kts | 93° |
| 2026-04-16 22:28 | 58.36023 | -134.84328 | 2664 ft | 158 kts | 93° |
| 2026-04-16 22:28 | 58.36010 | -134.82237 | 2530 ft | 158 kts | 93° |
| 2026-04-16 22:29 | 58.35997 | -134.80153 | 2387 ft | 158 kts | 93° |
| 2026-04-16 22:29 | 58.35984 | -134.78055 | 2168 ft | 157 kts | 93° |
| 2026-04-16 22:29 | 58.35970 | -134.75984 | 1931 ft | 155 kts | 93° |
| 2026-04-16 22:29 | 58.35957 | -134.74000 | 1691 ft | 145 kts | 93° |
| 2026-04-16 22:30 | 58.35945 | -134.72184 | 1514 ft | 132 kts | 94° |
| 2026-04-16 22:30 | 58.35932 | -134.70477 | 1327 ft | 129 kts | 94° |
| 2026-04-16 22:30 | 58.35918 | -134.68767 | 1134 ft | 128 kts | 94° |
| 2026-04-16 22:30 | 58.35905 | -134.67027 | 948 ft | 132 kts | 94° |
| 2026-04-16 22:31 | 58.35894 | -134.65291 | 750 ft | 130 kts | 93° |
| 2026-04-16 22:31 | 58.35882 | -134.63615 | 623 ft | 124 kts | 92° |
| 2026-04-16 22:31 | 58.35908 | -134.61979 | 392 ft | 121 kts | 90° |
| 2026-04-16 22:31 | 58.35880 | -134.60428 | 168 ft | 113 kts | 100° |
| 2026-04-16 22:32 | 58.35690 | -134.59017 | 41 ft | 104 kts | 105° |
| 2026-04-16 22:32 | 58.35547 | -134.57997 | 33 ft | 50 kts | 105° |
| 2026-04-16 22:32 | 58.35478 | -134.57510 | 34 ft | 26 kts | 105° |
| 2026-04-16 22:32 | 58.35457 | -134.57286 | 35 ft | 12 kts | 61° |
| 2026-04-16 22:33 | 58.35540 | -134.57287 | 34 ft | 13 kts | 336° |
| 2026-04-16 22:33 | 58.35579 | -134.57432 | 34 ft | 12 kts | 285° |
| 2026-04-16 22:33 | 58.35601 | -134.57588 | 33 ft | 12 kts | 284° |
| 2026-04-16 22:33 | 58.35622 | -134.57736 | 33 ft | 11 kts | 285° |
| 2026-04-16 22:34 | 58.35642 | -134.57880 | 32 ft | 11 kts | 285° |
| 2026-04-16 22:34 | 58.35662 | -134.58016 | 33 ft | 10 kts | 285° |
| 2026-04-16 22:34 | 58.35681 | -134.58152 | 33 ft | 12 kts | 284° |
| 2026-04-16 22:34 | 58.35704 | -134.58331 | 33 ft | 15 kts | 283° |
| 2026-04-16 22:35 | 58.35731 | -134.58530 | 32 ft | 13 kts | 287° |
| 2026-04-16 22:35 | 58.35786 | -134.58615 | 33 ft | 10 kts | 18° |
| 2026-04-16 22:35 | 58.35811 | -134.58510 | 31 ft | 9 kts | 64° |
| 2026-04-16 22:35 | 58.35839 | -134.58445 | 31 ft | 3 kts | 48° |
| 2026-04-16 22:36 | 58.35847 | -134.58428 | 33 ft | 1 kts | 49° |
| 2026-04-16 22:36 | 58.35848 | -134.58428 | 33 ft | 0 kts | 49° |